Terminal Aerodrome Forecast
Issued by NWS

Home | Current Version | Previous Version | Text Only | Print | Product List | Glossary Off
Versions: 1 2 3 4 5 6 7 8 9 10 11 12 13 14 15 16 17 18 19 20 21 22 23 24 25 26 27 28 29

000
FTUS45 KGGW 291100
TAFOLF
TAF
KOLF 291137Z 2912/3012 10012KT P6SM OVC015
     FM291400 09012KT P6SM VCSH OVC009
     FM291700 11012KT 6SM -SHRA OVC027
     FM300100 12006KT P6SM OVC050
     FM300500 10008KT P6SM OVC010=

USA.gov is the U.S. government's official web portal to all federal, state and local government web resources and services.